Time;durP1;ratioP1;P1;durP2;ratioP2;P2;SDS_P1;SDS_P2;PMS_P1;PMS_P2;Temp;Humidity;BMP_temperature;BMP_pressure;BME280_temperature;BME280_humidity;BME280_pressure;Samples;Min_cycle;Max_cycle;Signal;HPM_P1;HPM_P2
2023/08/06 00:01:21;;;;;;;6.00;1.00;;;19.30;96.70;;;;;;5074503;28;20206;-78
2023/08/06 00:03:48;;;;;;;3.70;0.70;;;19.30;96.60;;;;;;5064918;28;20204;-79
2023/08/06 00:06:18;;;;;;;6.83;0.90;;;19.20;96.50;;;;;;5055529;28;20207;-79
2023/08/06 00:08:45;;;;;;;6.00;0.80;;;19.20;96.50;;;;;;5067898;28;20204;-79
2023/08/06 00:11:13;;;;;;;2.23;0.60;;;19.20;96.40;;;;;;5058529;28;20226;-79
2023/08/06 00:13:40;;;;;;;3.17;0.90;;;19.10;96.30;;;;;;5074835;28;20218;-79
2023/08/06 00:16:14;;;;;;;2.93;0.87;;;19.10;96.30;;;;;;5060645;28;20200;-79
2023/08/06 00:18:42;;;;;;;4.13;0.53;;;19.10;96.30;;;;;;5067722;28;20206;-79
2023/08/06 00:21:12;;;;;;;1.30;0.70;;;19.00;96.20;;;;;;5055442;28;20196;-79
2023/08/06 00:23:40;;;;;;;3.13;0.83;;;19.00;96.30;;;;;;5067823;28;20192;-79
2023/08/06 00:26:08;;;;;;;2.70;0.60;;;19.00;96.40;;;;;;5052492;28;20204;-79
2023/08/06 00:28:35;;;;;;;4.23;0.40;;;19.00;96.30;;;;;;5053937;28;20207;-79
2023/08/06 00:31:02;;;;;;;6.97;0.77;;;19.00;96.30;;;;;;5067871;28;20199;-79
2023/08/06 00:33:30;;;;;;;1.17;0.70;;;19.10;96.40;;;;;;5054498;28;20295;-79
2023/08/06 00:35:57;;;;;;;1.70;0.40;;;19.00;96.40;;;;;;5065144;28;20270;-79
2023/08/06 00:38:24;;;;;;;2.43;0.70;;;19.10;96.30;;;;;;5078224;28;20209;-78
2023/08/06 00:40:53;;;;;;;2.07;0.60;;;19.00;96.20;;;;;;5049803;28;20244;-79
2023/08/06 00:43:20;;;;;;;0.63;0.50;;;19.00;96.20;;;;;;5077865;28;20227;-79
2023/08/06 00:45:48;;;;;;;0.57;0.47;;;19.00;96.20;;;;;;5060154;28;20275;-79
2023/08/06 00:48:18;;;;;;;1.67;0.47;;;18.90;96.10;;;;;;5076096;28;20203;-79
2023/08/06 00:50:46;;;;;;;0.43;0.43;;;18.90;96.10;;;;;;5055532;28;20213;-79
2023/08/06 00:53:14;;;;;;;2.43;0.53;;;18.90;96.20;;;;;;5088219;28;20225;-79
2023/08/06 00:55:44;;;;;;;4.10;0.83;;;18.90;96.20;;;;;;5073271;28;20234;-79
2023/08/06 00:58:13;;;;;;;0.50;0.50;;;18.90;96.30;;;;;;5070099;28;20201;-79
2023/08/06 01:00:40;;;;;;;2.10;0.63;;;18.80;96.30;;;;;;5077410;28;20298;-79
2023/08/06 01:03:08;;;;;;;4.23;0.63;;;18.80;96.40;;;;;;5072163;28;20247;-79
2023/08/06 01:05:36;;;;;;;3.60;0.80;;;18.80;96.40;;;;;;5067900;28;20202;-78
2023/08/06 01:08:25;;;;;;;3.67;0.90;;;18.80;96.30;;;;;;5052988;28;20507;-79
2023/08/06 01:10:58;;;;;;;2.40;0.60;;;18.70;96.30;;;;;;5077666;28;20217;-79
2023/08/06 01:13:43;;;;;;;3.10;0.80;;;18.70;96.30;;;;;;5070610;28;20196;-79
2023/08/06 01:16:11;;;;;;;4.27;0.70;;;18.70;96.40;;;;;;5093950;28;20203;-79
2023/08/06 01:18:41;;;;;;;0.57;0.47;;;18.60;96.50;;;;;;5062536;28;20210;-80
2023/08/06 01:21:09;;;;;;;1.40;0.50;;;18.70;96.70;;;;;;5074188;28;20235;-79
2023/08/06 01:23:36;;;;;;;2.83;0.60;;;18.60;96.80;;;;;;5058418;28;20234;-79
2023/08/06 01:26:22;;;;;;;1.57;0.60;;;18.70;96.90;;;;;;5085040;28;20258;-80
2023/08/06 01:29:13;;;;;;;2.67;0.70;;;18.70;97.00;;;;;;5054667;28;20581;-79
2023/08/06 01:31:44;;;;;;;5.20;0.90;;;18.60;97.00;;;;;;5084871;28;20204;-79
2023/08/06 01:34:20;;;;;;;4.00;0.60;;;18.60;97.00;;;;;;5081887;28;20215;-79
2023/08/06 01:36:49;;;;;;;4.47;1.13;;;18.60;97.00;;;;;;5064946;28;20509;-79
2023/08/06 01:39:16;;;;;;;2.83;0.57;;;18.60;97.00;;;;;;5068625;28;20296;-79
2023/08/06 01:41:44;;;;;;;2.83;1.00;;;18.60;97.00;;;;;;5076059;28;20207;-79
2023/08/06 01:44:11;;;;;;;2.50;0.97;;;18.50;96.90;;;;;;5073459;28;20196;-79
2023/08/06 01:46:38;;;;;;;3.63;0.60;;;18.60;97.00;;;;;;5067693;28;20330;-79
2023/08/06 01:49:07;;;;;;;2.27;0.50;;;18.50;97.00;;;;;;5078912;28;20202;-79
2023/08/06 01:51:34;;;;;;;4.17;0.70;;;18.50;96.90;;;;;;5059718;28;20200;-79
2023/08/06 01:54:04;;;;;;;1.40;0.30;;;18.50;96.90;;;;;;5073028;28;20619;-79
2023/08/06 01:56:32;;;;;;;2.53;0.77;;;18.40;97.00;;;;;;5078076;28;20245;-79
2023/08/06 01:59:00;;;;;;;3.60;0.60;;;18.40;97.10;;;;;;5059665;28;20203;-79
2023/08/06 02:01:31;;;;;;;3.90;0.80;;;18.40;97.10;;;;;;5062397;28;20338;-79
2023/08/06 02:03:58;;;;;;;2.13;0.67;;;18.40;97.20;;;;;;5066684;28;20203;-78
2023/08/06 02:06:25;;;;;;;1.80;0.40;;;18.40;97.20;;;;;;5059236;28;20207;-79
2023/08/06 02:08:53;;;;;;;3.33;0.63;;;18.40;97.20;;;;;;5068319;28;20201;-79
2023/08/06 02:11:23;;;;;;;2.00;0.47;;;18.40;97.10;;;;;;5081005;28;20238;-79
2023/08/06 02:13:50;;;;;;;4.30;0.60;;;18.40;97.10;;;;;;5072727;28;20220;-79
2023/08/06 02:16:18;;;;;;;1.80;0.40;;;18.40;97.10;;;;;;5071094;28;20192;-79
2023/08/06 02:18:46;;;;;;;5.57;0.63;;;18.40;97.00;;;;;;5073088;28;20624;-79
2023/08/06 02:21:13;;;;;;;3.33;0.70;;;18.50;97.10;;;;;;5071535;28;20545;-80
2023/08/06 02:23:40;;;;;;;1.87;0.50;;;18.40;97.00;;;;;;5083336;28;20247;-79
2023/08/06 02:26:09;;;;;;;4.17;0.73;;;18.40;97.00;;;;;;5052070;28;20204;-78
2023/08/06 02:28:37;;;;;;;3.30;0.50;;;18.50;97.00;;;;;;5069444;28;20195;-79
2023/08/06 02:31:06;;;;;;;1.70;0.60;;;18.40;97.00;;;;;;5057857;28;20200;-79
2023/08/06 02:33:36;;;;;;;2.27;0.80;;;18.50;97.00;;;;;;5058788;28;20203;-79
2023/08/06 02:36:04;;;;;;;2.80;0.60;;;18.50;97.00;;;;;;5057055;28;20219;-79
2023/08/06 02:38:32;;;;;;;6.87;0.70;;;18.50;97.00;;;;;;5072514;28;20215;-79
2023/08/06 02:41:03;;;;;;;7.73;0.83;;;18.50;97.00;;;;;;5068245;28;20207;-79
2023/08/06 02:43:31;;;;;;;1.33;0.47;;;18.50;97.00;;;;;;5076389;28;20229;-79
2023/08/06 02:46:00;;;;;;;2.73;0.40;;;18.60;97.00;;;;;;5054474;28;20207;-80
2023/08/06 02:48:28;;;;;;;4.10;0.67;;;18.60;97.00;;;;;;5070305;28;20541;-78
2023/08/06 02:50:59;;;;;;;1.80;0.40;;;18.60;96.90;;;;;;5084349;28;20540;-79
2023/08/06 02:53:28;;;;;;;1.13;0.50;;;18.60;96.90;;;;;;5051602;28;20305;-78
2023/08/06 02:55:58;;;;;;;0.50;0.40;;;18.70;96.80;;;;;;5067282;28;20241;-79
2023/08/06 02:58:33;;;;;;;2.90;0.60;;;18.70;96.80;;;;;;5066549;28;20215;-79
2023/08/06 03:01:09;;;;;;;1.93;0.50;;;18.70;96.70;;;;;;5058018;28;20580;-79
2023/08/06 03:03:46;;;;;;;1.87;0.50;;;18.80;96.60;;;;;;5071939;28;20726;-79
2023/08/06 03:06:23;;;;;;;0.50;0.50;;;18.80;96.40;;;;;;5059529;28;20841;-79
2023/08/06 03:08:53;;;;;;;1.20;0.47;;;18.80;96.30;;;;;;5048527;28;20218;-79
2023/08/06 03:11:21;;;;;;;2.37;0.73;;;18.80;96.20;;;;;;5067981;28;20200;-79
2023/08/06 03:13:53;;;;;;;1.40;0.33;;;18.90;96.00;;;;;;5072820;28;20607;-79
2023/08/06 03:16:21;;;;;;;0.77;0.40;;;18.90;95.80;;;;;;5066456;28;20678;-78
2023/08/06 03:18:48;;;;;;;0.53;0.30;;;19.00;95.60;;;;;;5067195;28;20227;-79
2023/08/06 03:21:16;;;;;;;2.90;0.60;;;18.90;95.50;;;;;;5063899;28;20712;-79
2023/08/06 03:23:48;;;;;;;1.00;0.50;;;19.00;95.50;;;;;;5071184;28;20240;-79
2023/08/06 03:26:18;;;;;;;1.13;0.43;;;19.00;95.40;;;;;;5071101;28;20228;-79
2023/08/06 03:28:46;;;;;;;0.30;0.30;;;19.00;95.40;;;;;;5067020;28;20199;-79
2023/08/06 03:31:14;;;;;;;0.40;0.40;;;19.00;95.30;;;;;;5078270;28;20204;-82
2023/08/06 03:33:44;;;;;;;0.40;0.40;;;19.00;95.30;;;;;;5050996;28;20293;-79
2023/08/06 03:36:20;;;;;;;2.20;0.40;;;19.10;95.30;;;;;;5053487;28;20207;-79
2023/08/06 03:38:48;;;;;;;1.37;0.50;;;19.10;95.20;;;;;;5067206;28;20226;-80
2023/08/06 03:41:16;;;;;;;0.30;0.30;;;19.10;95.10;;;;;;5056409;28;20583;-78
2023/08/06 03:43:44;;;;;;;2.33;0.40;;;19.10;94.90;;;;;;5071085;28;20272;-79
2023/08/06 03:46:18;;;;;;;1.43;0.50;;;19.10;94.80;;;;;;5068589;28;20210;-78
2023/08/06 03:48:46;;;;;;;2.13;0.50;;;19.10;94.70;;;;;;5065452;28;20201;-79
2023/08/06 03:51:13;;;;;;;4.23;0.50;;;19.20;94.60;;;;;;5062783;28;20209;-79
2023/08/06 03:53:44;;;;;;;1.80;0.40;;;19.10;94.70;;;;;;5050413;28;20215;-79
2023/08/06 03:56:11;;;;;;;2.83;0.70;;;19.10;94.70;;;;;;5063215;28;20243;-79
2023/08/06 03:58:39;;;;;;;2.53;0.60;;;19.10;94.70;;;;;;5050688;28;20222;-79
2023/08/06 04:01:08;;;;;;;5.17;0.50;;;19.00;94.80;;;;;;5076126;28;20531;-79
2023/08/06 04:03:44;;;;;;;1.67;0.47;;;19.10;95.00;;;;;;5074193;28;20270;-79
2023/08/06 04:06:12;;;;;;;0.37;0.27;;;19.00;95.20;;;;;;5050612;28;20204;-79
2023/08/06 04:08:40;;;;;;;3.17;0.50;;;19.00;95.20;;;;;;5057457;28;20203;-78
2023/08/06 04:11:08;;;;;;;0.97;0.40;;;19.00;95.10;;;;;;5073841;28;20211;-79
2023/08/06 04:13:35;;;;;;;2.53;0.70;;;19.00;95.20;;;;;;5059923;28;20299;-78
2023/08/06 04:16:03;;;;;;;1.50;0.50;;;19.00;95.30;;;;;;5061625;28;20228;-79
2023/08/06 04:18:32;;;;;;;0.33;0.33;;;18.90;95.30;;;;;;5072489;28;20531;-78
2023/08/06 04:20:59;;;;;;;1.50;0.50;;;19.00;95.30;;;;;;5071384;28;20209;-79
2023/08/06 04:23:26;;;;;;;2.73;0.70;;;18.90;95.20;;;;;;5065257;28;20216;-78
2023/08/06 04:25:58;;;;;;;1.73;0.47;;;18.90;95.10;;;;;;5052963;28;20210;-78
2023/08/06 04:28:30;;;;;;;3.17;0.50;;;18.90;95.10;;;;;;5054548;28;20208;-78
2023/08/06 04:31:02;;;;;;;2.83;0.70;;;18.80;95.10;;;;;;5053636;28;20200;-79
2023/08/06 04:33:32;;;;;;;4.57;0.70;;;18.80;95.10;;;;;;5062204;28;20219;-78
2023/08/06 04:36:04;;;;;;;3.63;0.80;;;18.70;95.00;;;;;;5061478;28;20211;-79
2023/08/06 04:38:33;;;;;;;2.07;0.60;;;18.70;95.00;;;;;;5063753;28;20208;-79
2023/08/06 04:41:03;;;;;;;1.80;0.63;;;18.70;95.20;;;;;;5067536;28;20226;-78
2023/08/06 04:43:30;;;;;;;2.10;0.73;;;18.60;95.20;;;;;;5054375;28;20217;-79
2023/08/06 04:45:58;;;;;;;0.60;0.60;;;18.60;95.20;;;;;;5056607;28;20207;-79
2023/08/06 04:48:25;;;;;;;3.50;0.60;;;18.60;95.20;;;;;;5062856;28;20200;-78
2023/08/06 04:50:54;;;;;;;3.27;0.80;;;18.60;95.40;;;;;;5076969;28;20249;-79
2023/08/06 04:53:21;;;;;;;1.47;0.50;;;18.60;95.40;;;;;;5069526;28;20210;-78
2023/08/06 04:55:49;;;;;;;2.63;0.70;;;18.60;95.50;;;;;;5062349;28;20255;-79
2023/08/06 04:58:16;;;;;;;1.37;0.50;;;18.70;95.70;;;;;;5069750;28;20212;-79
2023/08/06 05:00:44;;;;;;;0.50;0.50;;;18.70;95.80;;;;;;5072510;28;20208;-78
2023/08/06 05:03:11;;;;;;;2.20;0.73;;;18.80;95.80;;;;;;5071521;28;20223;-78
2023/08/06 05:05:41;;;;;;;2.33;0.60;;;18.80;95.80;;;;;;5071041;28;20255;-78
2023/08/06 05:08:15;;;;;;;1.83;0.80;;;18.80;95.70;;;;;;5069599;28;20243;-78
2023/08/06 05:10:44;;;;;;;2.90;0.60;;;18.90;95.70;;;;;;5060486;28;20203;-78
2023/08/06 05:13:12;;;;;;;1.43;0.80;;;19.00;95.70;;;;;;5059744;28;20206;-79
2023/08/06 05:15:42;;;;;;;3.63;0.70;;;19.00;95.70;;;;;;5071495;28;20237;-78
2023/08/06 05:18:09;;;;;;;3.57;1.00;;;19.10;95.60;;;;;;5054496;28;20205;-79
2023/08/06 05:20:38;;;;;;;2.07;0.97;;;19.10;95.50;;;;;;5059165;28;20587;-79
2023/08/06 05:23:05;;;;;;;0.80;0.60;;;19.20;95.40;;;;;;5056080;28;20249;-78
2023/08/06 05:25:35;;;;;;;0.83;0.60;;;19.30;95.50;;;;;;5074372;28;20291;-78
2023/08/06 05:28:02;;;;;;;1.43;0.70;;;19.30;95.40;;;;;;5083459;28;20707;-79
2023/08/06 05:30:30;;;;;;;1.40;1.03;;;19.40;95.40;;;;;;5062909;28;20220;-78
2023/08/06 05:32:57;;;;;;;4.43;0.83;;;19.50;95.30;;;;;;5085022;28;20887;-78
2023/08/06 05:35:25;;;;;;;2.13;0.90;;;19.50;95.10;;;;;;5046663;28;20659;-79
2023/08/06 05:37:52;;;;;;;5.33;1.00;;;19.60;94.90;;;;;;5077067;28;20208;-79
2023/08/06 05:40:20;;;;;;;2.47;0.90;;;19.70;94.70;;;;;;5068504;28;20608;-79
2023/08/06 05:42:47;;;;;;;2.83;0.97;;;19.80;94.60;;;;;;5055242;28;20211;-79
2023/08/06 05:45:15;;;;;;;4.17;0.90;;;20.00;94.50;;;;;;5062438;28;20205;-79
2023/08/06 05:47:43;;;;;;;1.50;0.90;;;20.10;94.30;;;;;;5059497;28;20314;-78
2023/08/06 05:50:10;;;;;;;2.93;1.07;;;20.20;94.10;;;;;;5087804;28;20291;-78
2023/08/06 05:52:37;;;;;;;2.53;1.10;;;20.30;93.90;;;;;;5059561;28;20205;-78
2023/08/06 05:55:05;;;;;;;1.40;1.20;;;20.30;93.80;;;;;;5061514;28;20216;-78
2023/08/06 05:57:33;;;;;;;2.23;1.83;;;20.40;93.70;;;;;;5069085;28;20257;-79
2023/08/06 06:00:02;;;;;;;1.77;1.33;;;20.40;94.00;;;;;;5062557;28;20680;-78
2023/08/06 06:02:38;;;;;;;4.17;1.43;;;20.50;93.70;;;;;;5070090;28;20200;-78
2023/08/06 06:05:06;;;;;;;2.77;1.50;;;20.60;93.60;;;;;;5068143;28;20262;-78
2023/08/06 06:07:33;;;;;;;3.03;1.60;;;20.70;93.60;;;;;;5068924;28;20275;-78
2023/08/06 06:10:01;;;;;;;3.67;1.73;;;20.80;93.50;;;;;;5054091;28;20201;-79
2023/08/06 06:12:29;;;;;;;9.23;2.50;;;20.90;93.40;;;;;;5078725;28;20254;-80
2023/08/06 06:14:57;;;;;;;3.67;1.90;;;21.00;93.30;;;;;;5075751;28;20220;-79
2023/08/06 06:17:24;;;;;;;3.10;1.73;;;21.10;93.20;;;;;;5052142;28;20216;-78
2023/08/06 06:19:51;;;;;;;2.43;1.83;;;21.20;93.30;;;;;;5072798;28;20211;-79
2023/08/06 06:22:19;;;;;;;3.90;1.97;;;21.30;93.20;;;;;;5052700;28;20289;-78
2023/08/06 06:24:46;;;;;;;2.00;1.90;;;21.40;93.00;;;;;;5059477;28;20312;-79
2023/08/06 06:27:14;;;;;;;3.00;2.27;;;21.40;93.00;;;;;;5052003;28;20210;-79
2023/08/06 06:29:41;;;;;;;2.87;2.57;;;21.50;93.00;;;;;;5053446;28;20222;-78
2023/08/06 06:32:09;;;;;;;3.17;2.03;;;21.40;92.90;;;;;;5068147;28;20271;-78
2023/08/06 06:34:36;;;;;;;4.43;3.17;;;21.50;93.00;;;;;;5060324;28;20691;-80
2023/08/06 06:37:04;;;;;;;3.80;2.90;;;21.50;93.30;;;;;;5068480;28;20292;-79
2023/08/06 06:39:33;;;;;;;5.70;3.17;;;21.70;93.40;;;;;;5072262;28;20254;-78
2023/08/06 06:42:00;;;;;;;5.17;2.80;;;21.80;93.40;;;;;;5071000;28;20216;-81
2023/08/06 06:44:35;;;;;;;3.37;3.07;;;21.90;93.10;;;;;;5071755;28;20602;-79
2023/08/06 06:47:03;;;;;;;5.07;2.93;;;22.00;92.90;;;;;;5054647;28;20250;-79
2023/08/06 06:49:30;;;;;;;4.90;2.97;;;22.00;92.80;;;;;;5087849;28;20194;-79
2023/08/06 06:52:00;;;;;;;4.47;3.50;;;22.00;92.90;;;;;;5068760;28;20201;-79
2023/08/06 06:54:28;;;;;;;4.20;3.07;;;22.00;92.90;;;;;;5060535;28;20655;-79
2023/08/06 06:56:55;;;;;;;3.67;2.93;;;21.90;92.90;;;;;;5071658;28;20240;-79
2023/08/06 06:59:23;;;;;;;8.67;3.47;;;21.90;92.90;;;;;;5055649;28;20201;-78
2023/08/06 07:01:50;;;;;;;6.57;3.20;;;22.00;92.90;;;;;;5057211;28;20590;-78
2023/08/06 07:04:18;;;;;;;8.37;3.70;;;22.00;93.10;;;;;;5077139;28;20210;-79
2023/08/06 07:06:45;;;;;;;3.50;3.20;;;22.10;93.10;;;;;;5067614;28;20207;-80
2023/08/06 07:09:15;;;;;;;6.47;3.73;;;22.20;93.00;;;;;;5055882;28;20202;-79
2023/08/06 07:11:43;;;;;;;4.27;3.80;;;22.30;93.00;;;;;;5070527;28;20197;-79
2023/08/06 07:14:11;;;;;;;5.73;3.63;;;22.40;93.00;;;;;;5069615;28;20243;-79
2023/08/06 07:16:39;;;;;;;6.33;3.53;;;22.50;93.10;;;;;;5069834;28;20252;-78
2023/08/06 07:19:06;;;;;;;6.03;3.70;;;22.60;92.90;;;;;;5071741;28;20213;-79
2023/08/06 07:21:33;;;;;;;5.13;3.27;;;22.70;92.80;;;;;;5059920;28;20205;-79
2023/08/06 07:24:01;;;;;;;5.10;3.77;;;22.70;92.70;;;;;;5084540;28;20240;-78
2023/08/06 07:26:28;;;;;;;6.33;3.63;;;22.80;92.80;;;;;;5057568;28;20697;-78
2023/08/06 07:28:55;;;;;;;5.20;3.50;;;23.00;93.00;;;;;;5065262;28;20233;-79
2023/08/06 07:31:23;;;;;;;3.90;3.53;;;23.30;92.90;;;;;;5069055;28;20798;-78
2023/08/06 07:33:51;;;;;;;5.47;3.20;;;23.60;92.60;;;;;;5075968;28;20263;-78
2023/08/06 07:36:18;;;;;;;3.53;3.23;;;23.80;92.30;;;;;;5074008;28;20270;-79
2023/08/06 07:38:46;;;;;;;7.87;3.80;;;24.10;92.10;;;;;;5070651;28;20265;-79
2023/08/06 07:41:13;;;;;;;4.90;2.90;;;24.40;91.70;;;;;;5089398;28;20207;-79
2023/08/06 07:43:42;;;;;;;3.10;2.80;;;24.70;91.20;;;;;;5078078;28;20307;-79
2023/08/06 07:46:11;;;;;;;3.17;2.97;;;25.00;90.80;;;;;;5050620;28;20202;-79
2023/08/06 07:48:39;;;;;;;3.53;3.23;;;25.20;90.10;;;;;;5074401;28;20284;-78
2023/08/06 07:51:06;;;;;;;3.60;2.63;;;25.30;88.60;;;;;;5071581;28;20264;-78
2023/08/06 07:53:38;;;;;;;2.93;2.60;;;25.30;86.00;;;;;;5072342;28;20213;-79
2023/08/06 07:56:05;;;;;;;2.90;2.70;;;25.10;84.70;;;;;;5067556;28;20226;-79
2023/08/06 07:58:33;;;;;;;3.07;2.73;;;24.80;85.50;;;;;;5073722;28;20201;-79
2023/08/06 08:01:03;;;;;;;2.83;2.50;;;24.60;86.50;;;;;;5069017;28;20202;-78
2023/08/06 08:03:32;;;;;;;3.93;2.73;;;24.40;87.70;;;;;;5072918;28;20598;-79
2023/08/06 08:06:02;;;;;;;7.10;2.80;;;24.50;88.70;;;;;;5051902;28;20210;-79
2023/08/06 08:08:31;;;;;;;3.00;2.70;;;24.60;88.80;;;;;;5067719;28;20301;-78
2023/08/06 08:11:00;;;;;;;2.60;2.40;;;24.80;88.40;;;;;;5068822;28;20271;-78
2023/08/06 08:13:28;;;;;;;3.17;2.23;;;25.00;87.50;;;;;;5066761;28;20199;-78
2023/08/06 08:15:59;;;;;;;3.90;1.60;;;25.20;86.70;;;;;;5075164;28;20210;-79
2023/08/06 08:18:27;;;;;;;2.20;1.83;;;25.40;86.20;;;;;;5064240;28;20260;-77
2023/08/06 08:20:54;;;;;;;5.33;2.30;;;25.70;83.10;;;;;;5061004;28;20248;-79
2023/08/06 08:23:21;;;;;;;2.60;1.80;;;25.90;82.90;;;;;;5070929;28;20251;-78
2023/08/06 08:25:48;;;;;;;2.70;1.80;;;26.00;80.00;;;;;;5072063;28;20609;-78
2023/08/06 08:28:16;;;;;;;4.43;1.77;;;26.20;79.60;;;;;;5080117;28;20192;-78
2023/08/06 08:30:43;;;;;;;3.33;1.80;;;26.20;80.50;;;;;;5062209;28;20228;-79
2023/08/06 08:33:10;;;;;;;1.73;1.50;;;26.30;80.20;;;;;;5067494;28;20636;-79
2023/08/06 08:35:37;;;;;;;1.90;1.70;;;26.50;80.00;;;;;;5062423;28;20241;-80
2023/08/06 08:38:05;;;;;;;2.60;1.70;;;26.60;79.70;;;;;;5071422;28;20222;-79
2023/08/06 08:40:34;;;;;;;1.83;1.40;;;26.90;79.20;;;;;;5057584;28;20202;-79
2023/08/06 08:43:02;;;;;;;0.70;0.70;;;27.10;78.40;;;;;;5066502;28;20273;-79
2023/08/06 08:45:29;;;;;;;1.33;0.60;;;27.30;74.20;;;;;;5078365;28;20226;-79
2023/08/06 08:47:57;;;;;;;0.43;0.43;;;27.40;70.80;;;;;;5054349;28;20240;-78
2023/08/06 08:50:28;;;;;;;0.30;0.30;;;27.50;69.10;;;;;;5057546;28;20266;-79
2023/08/06 08:52:55;;;;;;;0.43;0.43;;;27.50;68.20;;;;;;5091265;28;20204;-80
2023/08/06 08:55:24;;;;;;;0.80;0.70;;;27.50;67.20;;;;;;5059135;28;20732;-79
2023/08/06 08:57:58;;;;;;;1.60;0.40;;;27.60;69.10;;;;;;5087654;28;20215;-79
2023/08/06 09:00:29;;;;;;;0.83;0.50;;;27.70;70.30;;;;;;5066335;28;20193;-78
2023/08/06 09:03:00;;;;;;;0.87;0.70;;;27.70;67.10;;;;;;5057689;28;20266;-79
2023/08/06 09:05:30;;;;;;;0.50;0.50;;;27.70;67.20;;;;;;5064804;28;20734;-79
2023/08/06 09:08:04;;;;;;;0.40;0.40;;;27.70;67.70;;;;;;5072393;28;20209;-80
2023/08/06 09:10:31;;;;;;;0.50;0.50;;;27.80;65.20;;;;;;5066245;28;20208;-79
2023/08/06 09:13:00;;;;;;;0.50;0.50;;;27.90;61.70;;;;;;5069033;28;20239;-79
2023/08/06 09:15:28;;;;;;;0.43;0.40;;;28.00;63.10;;;;;;5073236;28;20224;-79
2023/08/06 09:17:56;;;;;;;0.40;0.40;;;28.10;62.90;;;;;;5073634;28;20205;-79
2023/08/06 09:20:23;;;;;;;0.43;0.43;;;28.30;62.30;;;;;;5078719;28;20212;-79
2023/08/06 09:22:53;;;;;;;1.00;0.80;;;28.30;63.50;;;;;;5090405;28;20453;-79
2023/08/06 09:25:25;;;;;;;1.23;0.80;;;28.50;63.20;;;;;;5068593;28;20213;-78
2023/08/06 09:27:53;;;;;;;4.03;0.47;;;28.60;62.10;;;;;;5076054;28;20518;-81
2023/08/06 09:30:31;;;;;;;0.60;0.60;;;28.60;62.40;;;;;;5061412;28;20221;-79
2023/08/06 09:32:58;;;;;;;1.43;0.50;;;28.70;61.60;;;;;;5061487;28;20332;-79
2023/08/06 09:35:30;;;;;;;2.33;0.57;;;28.80;61.90;;;;;;5075334;28;20212;-79
2023/08/06 09:38:07;;;;;;;1.00;0.63;;;28.90;60.60;;;;;;5053338;28;20742;-78
2023/08/06 09:40:35;;;;;;;0.73;0.60;;;29.00;60.20;;;;;;5068652;28;20205;-78
2023/08/06 09:43:03;;;;;;;0.90;0.53;;;29.00;60.10;;;;;;5050793;28;20228;-79
2023/08/06 09:45:37;;;;;;;1.60;0.50;;;29.00;60.20;;;;;;5071835;28;20225;-79
2023/08/06 09:48:07;;;;;;;1.23;0.80;;;29.10;60.50;;;;;;5054638;28;20232;-79
2023/08/06 09:50:36;;;;;;;4.40;0.73;;;29.20;60.80;;;;;;5054486;28;20319;-79
2023/08/06 09:53:05;;;;;;;2.07;0.73;;;29.30;59.10;;;;;;5068814;28;20229;-78
2023/08/06 09:55:34;;;;;;;2.50;0.80;;;29.40;59.80;;;;;;5082450;28;20242;-78
2023/08/06 09:58:03;;;;;;;1.27;0.80;;;29.50;59.60;;;;;;5067352;28;20233;-79
2023/08/06 10:00:33;;;;;;;0.97;0.63;;;29.60;59.80;;;;;;5072306;28;20229;-78
2023/08/06 10:03:09;;;;;;;5.10;0.90;;;29.70;59.60;;;;;;5063002;28;20299;-79
2023/08/06 10:05:38;;;;;;;3.17;1.00;;;29.90;59.20;;;;;;5073224;28;20245;-79
2023/08/06 10:08:07;;;;;;;3.33;0.70;;;30.00;58.80;;;;;;5061807;28;20217;-79
2023/08/06 10:10:35;;;;;;;2.97;1.20;;;30.20;58.50;;;;;;5079026;28;20201;-79
2023/08/06 10:13:05;;;;;;;1.77;0.80;;;30.40;56.10;;;;;;5071084;28;20220;-79
2023/08/06 10:15:32;;;;;;;1.23;0.90;;;30.30;54.50;;;;;;5067113;28;20221;-79
2023/08/06 10:18:02;;;;;;;1.37;0.70;;;30.30;55.10;;;;;;5072973;28;20202;-79
2023/08/06 10:20:36;;;;;;;4.33;1.27;;;30.30;56.00;;;;;;5071389;28;20233;-80
2023/08/06 10:23:05;;;;;;;1.30;0.90;;;30.30;56.40;;;;;;5073010;28;20212;-81
2023/08/06 10:25:34;;;;;;;2.40;0.97;;;30.50;56.50;;;;;;5078498;28;20239;-79
2023/08/06 10:28:15;;;;;;;1.57;1.30;;;30.60;55.30;;;;;;5070427;28;20202;-79
2023/08/06 10:30:45;;;;;;;1.43;1.00;;;30.70;54.90;;;;;;5058802;28;20250;-79
2023/08/06 10:33:16;;;;;;;2.10;1.00;;;30.80;55.00;;;;;;5055136;28;20217;-78
2023/08/06 10:35:53;;;;;;;3.30;1.10;;;30.90;54.80;;;;;;5074904;28;20272;-80
2023/08/06 10:38:29;;;;;;;1.27;0.97;;;31.00;54.80;;;;;;5055671;28;20267;-80
2023/08/06 10:40:57;;;;;;;1.87;0.97;;;31.10;53.60;;;;;;5075586;28;20235;-79
2023/08/06 10:43:51;;;;;;;0.90;0.90;;;31.20;52.30;;;;;;5054169;28;20212;-80
2023/08/06 10:46:28;;;;;;;1.50;0.80;;;31.10;50.20;;;;;;5073113;28;20232;-78
2023/08/06 10:48:56;;;;;;;1.53;0.87;;;30.90;51.90;;;;;;5052826;28;20263;-78
2023/08/06 10:51:23;;;;;;;1.00;0.90;;;30.90;52.50;;;;;;5062569;28;20198;-80
2023/08/06 10:53:51;;;;;;;1.77;1.20;;;31.00;51.30;;;;;;5074061;28;20219;-78
2023/08/06 10:56:26;;;;;;;1.73;0.77;;;31.10;49.90;;;;;;5068166;28;20731;-79
2023/08/06 10:58:57;;;;;;;1.57;1.13;;;31.10;47.80;;;;;;5066832;28;20204;-79
2023/08/06 11:01:28;;;;;;;2.47;1.10;;;31.10;48.10;;;;;;5073222;28;20277;-80
2023/08/06 11:04:02;;;;;;;2.03;1.10;;;31.10;47.70;;;;;;5069322;28;20189;-80
2023/08/06 11:06:30;;;;;;;3.17;0.90;;;31.20;47.80;;;;;;5067829;28;20649;-82
2023/08/06 11:08:57;;;;;;;4.50;0.90;;;31.20;47.50;;;;;;5054948;28;20205;-80
2023/08/06 11:11:29;;;;;;;0.80;0.80;;;31.40;47.60;;;;;;5075819;28;20572;-79
2023/08/06 11:13:56;;;;;;;0.90;0.70;;;31.40;47.20;;;;;;5075666;28;20524;-80
2023/08/06 11:16:29;;;;;;;1.10;0.73;;;31.40;45.50;;;;;;5053705;28;20201;-80
2023/08/06 11:18:59;;;;;;;4.07;0.80;;;31.40;46.40;;;;;;5056366;28;20614;-78
2023/08/06 11:21:27;;;;;;;1.10;0.70;;;31.40;44.70;;;;;;5060273;28;20256;-80
2023/08/06 11:23:55;;;;;;;1.93;1.00;;;31.20;45.80;;;;;;5056374;28;20227;-79
2023/08/06 11:26:23;;;;;;;0.83;0.80;;;31.10;46.40;;;;;;5056501;28;20249;-79
2023/08/06 11:28:54;;;;;;;1.93;0.70;;;31.10;46.30;;;;;;5088078;28;20244;-78
2023/08/06 11:31:23;;;;;;;0.73;0.60;;;31.10;45.80;;;;;;5082026;28;20197;-79
2023/08/06 11:33:52;;;;;;;0.90;0.70;;;31.20;46.40;;;;;;5074112;28;20231;-82
2023/08/06 11:36:40;;;;;;;1.50;0.90;;;31.30;45.90;;;;;;5075505;28;20213;-80
2023/08/06 11:39:09;;;;;;;1.90;0.90;;;31.40;45.00;;;;;;5057974;28;20213;-79
2023/08/06 11:41:40;;;;;;;3.10;0.77;;;31.30;45.10;;;;;;5060258;28;20304;-79
2023/08/06 11:44:11;;;;;;;0.77;0.77;;;31.20;46.30;;;;;;5049684;28;20585;-79
2023/08/06 11:47:01;;;;;;;2.33;0.70;;;31.30;45.10;;;;;;5086900;28;20218;-80
2023/08/06 11:49:51;;;;;;;2.17;0.90;;;31.50;43.10;;;;;;5052208;28;20201;-80
2023/08/06 11:52:23;;;;;;;1.73;0.90;;;31.60;41.40;;;;;;5053621;28;20197;-80
2023/08/06 11:55:10;;;;;;;2.60;0.63;;;31.60;41.70;;;;;;5075889;28;20201;-79
2023/08/06 11:57:39;;;;;;;4.57;1.00;;;31.50;43.30;;;;;;5058765;28;20241;-79
2023/08/06 12:00:12;;;;;;;2.00;1.00;;;31.50;43.40;;;;;;5061622;28;20274;-79
2023/08/06 12:02:45;;;;;;;1.43;0.93;;;31.60;44.30;;;;;;5069301;28;21033;-78
2023/08/06 12:05:23;;;;;;;2.30;1.03;;;31.60;44.00;;;;;;5054150;28;20213;-80
2023/08/06 12:07:53;;;;;;;1.17;1.00;;;31.70;43.90;;;;;;5051823;28;20225;-80
2023/08/06 12:10:23;;;;;;;1.80;1.20;;;31.80;43.00;;;;;;5059581;28;20301;-78
2023/08/06 12:12:51;;;;;;;1.67;1.27;;;31.80;41.10;;;;;;5069698;28;20193;-80
2023/08/06 12:15:18;;;;;;;0.97;0.80;;;31.70;40.40;;;;;;5064610;28;20229;-80
2023/08/06 12:17:45;;;;;;;3.63;1.07;;;31.60;39.50;;;;;;5077622;28;20648;-81
2023/08/06 12:20:14;;;;;;;2.80;0.80;;;31.60;38.00;;;;;;5066200;28;20194;-78
2023/08/06 12:22:42;;;;;;;0.80;0.80;;;31.60;38.60;;;;;;5064264;28;20537;-81
2023/08/06 12:25:13;;;;;;;1.50;0.90;;;31.70;38.50;;;;;;5094657;28;20217;-79
2023/08/06 12:27:44;;;;;;;2.10;0.80;;;31.80;38.40;;;;;;5075570;28;20194;-81
2023/08/06 12:30:13;;;;;;;1.10;0.60;;;31.80;37.80;;;;;;5073846;28;20212;-79
2023/08/06 12:32:41;;;;;;;1.07;0.90;;;31.80;38.30;;;;;;5049176;28;20216;-81
2023/08/06 12:35:09;;;;;;;1.97;1.00;;;31.80;39.80;;;;;;5061714;28;20254;-79
2023/08/06 12:37:38;;;;;;;0.70;0.70;;;31.90;38.60;;;;;;5056586;28;20212;-79
2023/08/06 12:40:12;;;;;;;2.37;0.90;;;31.90;39.10;;;;;;5053611;28;20213;-79
2023/08/06 12:42:43;;;;;;;1.00;0.80;;;32.00;37.20;;;;;;5052173;28;20209;-81
2023/08/06 12:45:10;;;;;;;2.63;1.07;;;31.90;37.50;;;;;;5076539;28;20605;-80
2023/08/06 12:47:40;;;;;;;2.70;0.90;;;31.80;37.20;;;;;;5075919;28;20277;-79
2023/08/06 12:50:10;;;;;;;2.33;0.87;;;31.60;37.10;;;;;;5076617;28;20229;-80
2023/08/06 12:52:38;;;;;;;1.37;0.80;;;31.50;37.90;;;;;;5058581;28;20213;-79
2023/08/06 12:55:08;;;;;;;4.10;1.00;;;31.40;38.20;;;;;;5056073;28;20221;-82
2023/08/06 12:57:35;;;;;;;1.07;0.90;;;31.40;38.80;;;;;;5067913;28;20222;-80
2023/08/06 13:00:23;;;;;;;1.30;0.90;;;31.40;38.00;;;;;;5071767;28;20213;-80